createdAt,value
2019-03-01T00:00:51.857Z,1008.15
2019-03-01T00:01:51.855Z,1008.17
2019-03-01T00:02:51.838Z,1008.17
2019-03-01T00:03:51.846Z,1008.13
2019-03-01T00:04:51.825Z,1008.12
2019-03-01T00:05:51.817Z,1008.12
2019-03-01T00:06:51.815Z,1008.09
2019-03-01T00:07:51.809Z,1008.09
2019-03-01T00:08:51.796Z,1008.09
2019-03-01T00:09:51.789Z,1008.11
2019-03-01T00:10:51.786Z,1008.13
2019-03-01T00:11:51.779Z,1008.10
2019-03-01T00:12:51.769Z,1008.09
2019-03-01T00:13:51.766Z,1008.01
2019-03-01T00:14:51.751Z,1008.03
2019-03-01T00:15:51.743Z,1008.05
2019-03-01T00:16:51.738Z,1008.05
2019-03-01T00:17:51.733Z,1008.07
2019-03-01T00:18:51.730Z,1008.02
2019-03-01T00:19:51.724Z,1008.04
2019-03-01T00:20:51.714Z,1007.98
2019-03-01T00:21:51.708Z,1007.93
2019-03-01T00:22:51.697Z,1007.97
2019-03-01T00:23:51.686Z,1007.99
2019-03-01T00:24:51.684Z,1007.96
2019-03-01T00:25:51.682Z,1007.96
2019-03-01T00:26:51.666Z,1008.02
2019-03-01T00:27:51.657Z,1007.94
2019-03-01T00:28:51.654Z,1007.94
2019-03-01T00:29:51.648Z,1007.88
2019-03-01T00:30:51.647Z,1007.87
2019-03-01T00:31:51.637Z,1007.92
2019-03-01T00:32:51.631Z,1007.90
2019-03-01T00:33:51.625Z,1007.91
2019-03-01T00:34:51.633Z,1007.87
2019-03-01T00:35:51.605Z,1007.87
2019-03-01T00:36:51.596Z,1007.86
2019-03-01T00:37:51.590Z,1007.87
2019-03-01T00:38:51.590Z,1007.86
2019-03-01T00:39:51.579Z,1007.80
2019-03-01T00:40:51.568Z,1007.82
2019-03-01T00:41:51.559Z,1007.81
2019-03-01T00:42:51.559Z,1007.77
2019-03-01T00:43:51.550Z,1007.75
2019-03-01T00:44:51.545Z,1007.76
2019-03-01T00:45:51.544Z,1007.73
2019-03-01T00:46:51.532Z,1007.70
2019-03-01T00:47:51.520Z,1007.66
2019-03-01T00:48:51.514Z,1007.68
2019-03-01T00:49:51.505Z,1007.66
2019-03-01T00:50:51.505Z,1007.60
2019-03-01T00:51:51.497Z,1007.64
2019-03-01T00:52:51.487Z,1007.58
2019-03-01T00:53:51.481Z,1007.61
2019-03-01T00:54:51.468Z,1007.58
2019-03-01T00:55:51.461Z,1007.58
2019-03-01T00:56:51.460Z,1007.62
2019-03-01T00:57:51.453Z,1007.56
2019-03-01T00:58:51.442Z,1007.48
2019-03-01T00:59:51.433Z,1007.50
2019-03-01T01:00:51.433Z,1007.53
2019-03-01T01:01:51.422Z,1007.50
2019-03-01T01:02:51.418Z,1007.51
2019-03-01T01:03:51.412Z,1007.51
2019-03-01T01:04:51.409Z,1007.47
2019-03-01T01:05:51.396Z,1007.47
2019-03-01T01:06:51.386Z,1007.49
2019-03-01T01:07:51.378Z,1007.45
2019-03-01T01:08:51.371Z,1007.46
2019-03-01T01:09:51.361Z,1007.45
2019-03-01T01:10:51.360Z,1007.44
2019-03-01T01:11:51.351Z,1007.44
2019-03-01T01:12:51.339Z,1007.44
2019-03-01T01:13:51.334Z,1007.43
2019-03-01T01:14:51.331Z,1007.37
2019-03-01T01:15:51.325Z,1007.35
2019-03-01T01:16:51.319Z,1007.34
2019-03-01T01:17:51.312Z,1007.35
2019-03-01T01:18:51.300Z,1007.38
2019-03-01T01:19:51.293Z,1007.35
2019-03-01T01:20:51.282Z,1007.38
2019-03-01T01:21:51.276Z,1007.31
2019-03-01T01:22:51.273Z,1007.32
2019-03-01T01:23:51.268Z,1007.26
2019-03-01T01:24:51.265Z,1007.28
2019-03-01T01:25:51.254Z,1007.32
2019-03-01T01:26:51.244Z,1007.23
2019-03-01T01:27:51.234Z,1007.29
2019-03-01T01:28:51.231Z,1007.30
2019-03-01T01:29:51.226Z,1007.25
2019-03-01T01:30:51.216Z,1007.22
2019-03-01T01:31:51.207Z,1007.27
2019-03-01T01:32:51.197Z,1007.20
2019-03-01T01:33:51.204Z,1007.28
2019-03-01T01:34:51.189Z,1007.25
2019-03-01T01:35:51.181Z,1007.18
2019-03-01T01:36:51.181Z,1007.22
2019-03-01T01:37:51.166Z,1007.22
2019-03-01T01:38:51.153Z,1007.15
2019-03-01T01:39:51.147Z,1007.18
2019-03-01T01:40:51.142Z,1007.14
2019-03-01T01:41:51.136Z,1007.11
2019-03-01T01:42:51.132Z,1007.12
2019-03-01T01:43:51.128Z,1007.11
2019-03-01T01:44:51.113Z,1007.11
2019-03-01T01:45:51.813Z,1007.07
2019-03-01T01:46:51.106Z,1007.06
2019-03-01T01:47:51.097Z,1007.05
2019-03-01T01:48:51.087Z,1007.07
2019-03-01T01:49:51.080Z,1007.06
2019-03-01T01:50:51.069Z,1007.09
2019-03-01T01:51:51.061Z,1007.11
2019-03-01T01:52:51.053Z,1007.06
2019-03-01T01:53:51.045Z,1007.09
2019-03-01T01:54:51.044Z,1007.04
2019-03-01T01:55:51.036Z,1007.04
2019-03-01T01:56:51.031Z,1007.03
2019-03-01T01:57:51.024Z,1007.00
2019-03-01T01:58:51.013Z,1007.01
2019-03-01T01:59:51.006Z,1006.99
2019-03-01T02:00:51.003Z,1007.02
2019-03-01T02:01:50.995Z,1007.04
2019-03-01T02:02:50.987Z,1007.01
2019-03-01T02:03:50.976Z,1006.98
2019-03-01T02:04:50.966Z,1007.00
2019-03-01T02:05:50.960Z,1006.98
2019-03-01T02:06:50.958Z,1006.97
2019-03-01T02:07:50.950Z,1006.97
2019-03-01T02:08:50.944Z,1006.97
2019-03-01T02:09:50.936Z,1006.94
2019-03-01T02:10:50.923Z,1006.96
2019-03-01T02:11:50.920Z,1006.94
2019-03-01T02:12:50.912Z,1006.93
2019-03-01T02:13:50.903Z,1006.93
2019-03-01T02:14:50.902Z,1006.91
2019-03-01T02:15:50.905Z,1006.87
2019-03-01T02:16:50.883Z,1006.88
2019-03-01T02:17:50.876Z,1006.85
2019-03-01T02:18:57.524Z,1006.86
2019-03-01T02:19:50.867Z,1006.87
2019-03-01T02:20:50.856Z,1006.86
2019-03-01T02:21:50.849Z,1006.85
2019-03-01T02:22:50.837Z,1006.82
2019-03-01T02:23:50.829Z,1006.82
2019-03-01T02:24:50.822Z,1006.83
2019-03-01T02:25:50.815Z,1006.80
2019-03-01T02:26:50.812Z,1006.75
2019-03-01T02:27:50.805Z,1006.80
2019-03-01T02:28:50.800Z,1006.77
2019-03-01T02:29:50.793Z,1006.77
2019-03-01T02:30:50.783Z,1006.75
2019-03-01T02:31:50.774Z,1006.78
2019-03-01T02:32:50.774Z,1006.73
2019-03-01T02:33:50.772Z,1006.71
2019-03-01T02:34:50.753Z,1006.75
2019-03-01T02:35:50.747Z,1006.74
2019-03-01T02:36:50.737Z,1006.74
2019-03-01T02:37:50.733Z,1006.68
2019-03-01T02:38:50.728Z,1006.75
2019-03-01T02:39:50.719Z,1006.72
2019-03-01T02:40:50.714Z,1006.72
2019-03-01T02:41:50.705Z,1006.73
2019-03-01T02:42:50.692Z,1006.76
2019-03-01T02:43:50.685Z,1006.75
2019-03-01T02:44:50.692Z,1006.75
2019-03-01T02:45:50.674Z,1006.78
2019-03-01T02:46:50.670Z,1006.74
2019-03-01T02:47:50.664Z,1006.75
2019-03-01T02:48:50.653Z,1006.76
2019-03-01T02:49:50.644Z,1006.70
2019-03-01T02:50:50.650Z,1006.64
2019-03-01T02:51:50.633Z,1006.68
2019-03-01T02:52:50.624Z,1006.65
2019-03-01T02:53:50.619Z,1006.64
2019-03-01T02:54:50.605Z,1006.62
2019-03-01T02:55:50.601Z,1006.57
2019-03-01T02:56:50.603Z,1006.59
2019-03-01T02:57:50.583Z,1006.59
2019-03-01T02:58:50.582Z,1006.56
2019-03-01T02:59:50.576Z,1006.56
2019-03-01T03:00:50.567Z,1006.57
2019-03-01T03:01:50.563Z,1006.62
2019-03-01T03:02:50.550Z,1006.54
2019-03-01T03:03:50.547Z,1006.58
2019-03-01T03:04:50.546Z,1006.58
2019-03-01T03:05:50.533Z,1006.52
2019-03-01T03:06:50.521Z,1006.50
2019-03-01T03:07:50.512Z,1006.49
2019-03-01T03:08:50.503Z,1006.50
2019-03-01T03:09:50.497Z,1006.44
2019-03-01T03:10:50.495Z,1006.43
2019-03-01T03:11:50.486Z,1006.46
2019-03-01T03:12:50.483Z,1006.43
2019-03-01T03:13:50.473Z,1006.39
2019-03-01T03:14:50.464Z,1006.43
2019-03-01T03:15:50.453Z,1006.40
2019-03-01T03:16:50.448Z,1006.42
2019-03-01T03:17:50.440Z,1006.44
2019-03-01T03:18:50.439Z,1006.42
2019-03-01T03:19:50.429Z,1006.41
2019-03-01T03:20:50.421Z,1006.40
2019-03-01T03:21:50.412Z,1006.44
2019-03-01T03:22:50.410Z,1006.44
2019-03-01T03:23:50.402Z,1006.45
2019-03-01T03:24:50.394Z,1006.41
2019-03-01T03:25:50.388Z,1006.41
2019-03-01T03:26:50.376Z,1006.40
2019-03-01T03:27:50.365Z,1006.37
2019-03-01T03:28:50.362Z,1006.37
2019-03-01T03:29:50.354Z,1006.41
2019-03-01T03:30:50.371Z,1006.40
2019-03-01T03:31:50.344Z,1006.41
2019-03-01T03:32:50.340Z,1006.36
2019-03-01T03:33:50.328Z,1006.40
2019-03-01T03:34:50.331Z,1006.40
2019-03-01T03:35:50.333Z,1006.40
2019-03-01T03:36:50.306Z,1006.47
2019-03-01T03:37:50.299Z,1006.43
2019-03-01T03:38:50.295Z,1006.37
2019-03-01T03:39:50.279Z,1006.42
2019-03-01T03:40:50.277Z,1006.41
2019-03-01T03:41:50.269Z,1006.41
2019-03-01T03:42:50.269Z,1006.41
2019-03-01T03:43:50.257Z,1006.39
2019-03-01T03:44:50.251Z,1006.39
2019-03-01T03:45:50.243Z,1006.39
2019-03-01T03:46:50.245Z,1006.41
2019-03-01T03:47:50.225Z,1006.40
2019-03-01T03:48:50.237Z,1006.39
2019-03-01T03:49:50.207Z,1006.37
2019-03-01T03:50:50.204Z,1006.38
2019-03-01T03:51:50.207Z,1006.39
2019-03-01T03:52:50.186Z,1006.41
2019-03-01T03:53:50.178Z,1006.39
2019-03-01T03:54:50.178Z,1006.41
2019-03-01T03:55:50.170Z,1006.39
2019-03-01T03:56:50.163Z,1006.35
2019-03-01T03:57:50.159Z,1006.37
2019-03-01T03:58:50.156Z,1006.33
2019-03-01T03:59:50.139Z,1006.37
2019-03-01T04:00:50.133Z,1006.36
2019-03-01T04:01:50.146Z,1006.31
2019-03-01T04:02:50.123Z,1006.37
2019-03-01T04:03:50.112Z,1006.37
2019-03-01T04:04:50.106Z,1006.36
2019-03-01T04:05:50.099Z,1006.34
2019-03-01T04:06:50.085Z,1006.37
2019-03-01T04:07:50.080Z,1006.36
2019-03-01T04:08:50.077Z,1006.34
2019-03-01T04:09:50.069Z,1006.40
2019-03-01T04:10:50.060Z,1006.38
2019-03-01T04:11:50.048Z,1006.35
2019-03-01T04:12:50.054Z,1006.40
2019-03-01T04:13:50.047Z,1006.34
2019-03-01T04:14:50.056Z,1006.42
2019-03-01T04:15:50.028Z,1006.38
2019-03-01T04:16:50.021Z,1006.39
2019-03-01T04:17:50.017Z,1006.37
2019-03-01T04:18:50.006Z,1006.38
2019-03-01T04:19:49.996Z,1006.41
2019-03-01T04:20:49.990Z,1006.37
2019-03-01T04:21:50.005Z,1006.33
2019-03-01T04:22:49.978Z,1006.35
2019-03-01T04:23:49.969Z,1006.33
2019-03-01T04:24:49.957Z,1006.32
2019-03-01T04:25:49.950Z,1006.32
2019-03-01T04:26:49.953Z,1006.31
2019-03-01T04:27:49.941Z,1006.32
2019-03-01T04:28:49.938Z,1006.31
2019-03-01T04:29:49.931Z,1006.33
2019-03-01T04:30:49.919Z,1006.27
2019-03-01T04:31:49.911Z,1006.30
2019-03-01T04:32:49.903Z,1006.24
2019-03-01T04:33:49.894Z,1006.29
2019-03-01T04:34:49.892Z,1006.31
2019-03-01T04:35:49.886Z,1006.33
2019-03-01T04:36:49.880Z,1006.34
2019-03-01T04:37:49.875Z,1006.27
2019-03-01T04:38:49.860Z,1006.29
2019-03-01T04:39:49.853Z,1006.32
2019-03-01T04:40:49.853Z,1006.32
2019-03-01T04:41:49.844Z,1006.29
2019-03-01T04:42:49.835Z,1006.31
2019-03-01T04:43:49.826Z,1006.30
2019-03-01T04:44:49.815Z,1006.30
2019-03-01T04:45:49.821Z,1006.31
2019-03-01T04:46:49.805Z,1006.27
2019-03-01T04:47:49.799Z,1006.27
2019-03-01T04:48:49.792Z,1006.29
2019-03-01T04:49:49.788Z,1006.22
2019-03-01T04:50:49.774Z,1006.27
2019-03-01T04:51:49.766Z,1006.24
2019-03-01T04:52:49.765Z,1006.25
2019-03-01T04:53:49.759Z,1006.21
2019-03-01T04:54:49.754Z,1006.22
2019-03-01T04:55:49.743Z,1006.23
2019-03-01T04:56:49.732Z,1006.27
2019-03-01T04:57:49.725Z,1006.26
2019-03-01T04:58:49.723Z,1006.22
2019-03-01T04:59:49.717Z,1006.24
2019-03-01T05:00:49.706Z,1006.22
2019-03-01T05:01:49.699Z,1006.26
2019-03-01T05:02:49.687Z,1006.24
2019-03-01T05:03:49.679Z,1006.23
2019-03-01T05:04:49.674Z,1006.27
2019-03-01T05:05:49.666Z,1006.25
2019-03-01T05:06:49.664Z,1006.26
2019-03-01T05:07:49.656Z,1006.28
2019-03-01T05:08:49.658Z,1006.30
2019-03-01T05:09:49.645Z,1006.30
2019-03-01T05:10:49.635Z,1006.30
2019-03-01T05:11:49.625Z,1006.32
2019-03-01T05:12:49.623Z,1006.29
2019-03-01T05:13:49.617Z,1006.34
2019-03-01T05:14:49.604Z,1006.29
2019-03-01T05:15:49.608Z,1006.34
2019-03-01T05:16:49.590Z,1006.32
2019-03-01T05:17:49.580Z,1006.36
2019-03-01T05:18:49.579Z,1006.32
2019-03-01T05:19:49.570Z,1006.39
2019-03-01T05:20:49.563Z,1006.40
2019-03-01T05:21:49.557Z,1006.34
2019-03-01T05:22:49.545Z,1006.36
2019-03-01T05:23:49.537Z,1006.42
2019-03-01T05:24:49.533Z,1006.43
2019-03-01T05:25:49.526Z,1006.38
2019-03-01T05:26:49.524Z,1006.43
2019-03-01T05:27:49.515Z,1006.38
2019-03-01T05:28:49.504Z,1006.40
2019-03-01T05:29:49.497Z,1006.42
2019-03-01T05:30:49.496Z,1006.44
2019-03-01T05:31:49.487Z,1006.46
2019-03-01T05:32:49.477Z,1006.44
2019-03-01T05:33:49.472Z,1006.47
2019-03-01T05:34:49.458Z,1006.44
2019-03-01T05:35:49.455Z,1006.44
2019-03-01T05:36:49.453Z,1006.42
2019-03-01T05:37:49.440Z,1006.40
2019-03-01T05:38:49.438Z,1006.43
2019-03-01T05:39:49.429Z,1006.49
2019-03-01T05:40:49.420Z,1006.48
2019-03-01T05:41:49.415Z,1006.48
2019-03-01T05:42:49.401Z,1006.48
2019-03-01T05:43:49.398Z,1006.46
2019-03-01T05:44:49.395Z,1006.50
2019-03-01T05:45:49.385Z,1006.48
2019-03-01T05:46:49.372Z,1006.48
2019-03-01T05:47:49.369Z,1006.52
2019-03-01T05:48:49.363Z,1006.53
2019-03-01T05:49:49.355Z,1006.48
2019-03-01T05:50:49.352Z,1006.51
2019-03-01T05:51:49.345Z,1006.54
2019-03-01T05:52:49.337Z,1006.51
2019-03-01T05:53:49.331Z,1006.56
2019-03-01T05:54:49.319Z,1006.57
2019-03-01T05:55:49.312Z,1006.56
2019-03-01T05:56:49.303Z,1006.57
2019-03-01T05:57:49.294Z,1006.54
2019-03-01T05:58:49.295Z,1006.54
2019-03-01T05:59:49.287Z,1006.58
2019-03-01T06:00:49.272Z,1006.61
2019-03-01T06:01:49.265Z,1006.60
2019-03-01T06:02:49.264Z,1006.63
2019-03-01T06:03:49.257Z,1006.63
2019-03-01T06:04:49.253Z,1006.63
2019-03-01T06:05:49.245Z,1006.58
2019-03-01T06:06:49.235Z,1006.63
2019-03-01T06:07:49.227Z,1006.65
2019-03-01T06:08:49.219Z,1006.70
2019-03-01T06:09:49.212Z,1006.67
2019-03-01T06:10:50.712Z,1006.62
2019-03-01T06:11:49.202Z,1006.67
2019-03-01T06:12:49.193Z,1006.65
2019-03-01T06:13:49.186Z,1006.65
2019-03-01T06:14:49.175Z,1006.70
2019-03-01T06:15:49.168Z,1006.68
2019-03-01T06:16:49.173Z,1006.70
2019-03-01T06:17:49.161Z,1006.72
2019-03-01T06:18:49.146Z,1006.71
2019-03-01T06:19:49.137Z,1006.72
2019-03-01T06:20:49.135Z,1006.74
2019-03-01T06:21:49.127Z,1006.74
2019-03-01T06:22:49.126Z,1006.74
2019-03-01T06:23:49.116Z,1006.77
2019-03-01T06:24:49.110Z,1006.77
2019-03-01T06:25:49.103Z,1006.81
2019-03-01T06:26:49.092Z,1006.83
2019-03-01T06:27:49.084Z,1006.86
2019-03-01T06:28:49.073Z,1006.83
2019-03-01T06:29:49.068Z,1006.84
2019-03-01T06:30:51.782Z,1006.86
2019-03-01T06:31:49.059Z,1006.91
2019-03-01T06:32:49.052Z,1006.92
2019-03-01T06:33:49.040Z,1006.92
2019-03-01T06:34:49.038Z,1006.93
2019-03-01T06:35:49.029Z,1006.95
2019-03-01T06:36:49.023Z,1006.92
2019-03-01T06:37:49.019Z,1006.94
2019-03-01T06:38:49.007Z,1006.94
2019-03-01T06:39:49.005Z,1006.99
2019-03-01T06:40:48.988Z,1006.97
2019-03-01T06:41:48.984Z,1007.00
2019-03-01T06:42:48.979Z,1007.03
2019-03-01T06:43:48.972Z,1007.04
2019-03-01T06:44:48.969Z,1007.01
2019-03-01T06:45:48.961Z,1007.02
2019-03-01T06:46:48.950Z,1007.02
2019-03-01T06:47:48.942Z,1007.02
2019-03-01T06:48:48.939Z,1007.06
2019-03-01T06:49:48.932Z,1007.06
2019-03-01T06:50:48.924Z,1007.01
2019-03-01T06:51:48.913Z,1007.06
2019-03-01T06:52:48.904Z,1007.05
2019-03-01T06:53:48.896Z,1007.05
2019-03-01T06:54:48.895Z,1007.02
2019-03-01T06:55:48.886Z,1007.01
2019-03-01T06:56:48.881Z,1006.97
2019-03-01T06:57:48.873Z,1007.02
2019-03-01T06:58:48.864Z,1007.07
2019-03-01T06:59:48.853Z,1007.04
2019-03-01T07:00:50.385Z,1007.05
2019-03-01T07:01:48.847Z,1007.07
2019-03-01T07:02:48.840Z,1007.08
2019-03-01T07:03:48.834Z,1007.10
2019-03-01T07:04:48.821Z,1007.14
2019-03-01T07:05:48.815Z,1007.19
2019-03-01T07:06:48.812Z,1007.18
2019-03-01T07:07:48.803Z,1007.19
2019-03-01T07:08:48.794Z,1007.19
2019-03-01T07:09:48.789Z,1007.20
2019-03-01T07:10:48.776Z,1007.24
2019-03-01T07:11:48.771Z,1007.28
2019-03-01T07:12:48.760Z,1007.24
2019-03-01T07:13:48.764Z,1007.19
2019-03-01T07:14:48.752Z,1007.22
2019-03-01T07:15:48.744Z,1007.24
2019-03-01T07:16:48.740Z,1007.29
2019-03-01T07:17:48.733Z,1007.30
2019-03-01T07:18:48.722Z,1007.35
2019-03-01T07:19:48.715Z,1007.38
2019-03-01T07:20:48.712Z,1007.40
2019-03-01T07:21:48.704Z,1007.38
2019-03-01T07:22:48.693Z,1007.40
2019-03-01T07:23:48.684Z,1007.38
2019-03-01T07:24:48.675Z,1007.36
2019-03-01T07:25:48.670Z,1007.39
2019-03-01T07:26:48.667Z,1007.39
2019-03-01T07:27:48.660Z,1007.38
2019-03-01T07:28:48.654Z,1007.42
2019-03-01T07:29:48.645Z,1007.43
2019-03-01T07:30:48.641Z,1007.41
2019-03-01T07:31:48.626Z,1007.46
2019-03-01T07:32:48.621Z,1007.40
2019-03-01T07:33:48.616Z,1007.49
2019-03-01T07:34:48.613Z,1007.47
2019-03-01T07:35:48.604Z,1007.47
2019-03-01T07:36:48.594Z,1007.49
2019-03-01T07:37:48.589Z,1007.51
2019-03-01T07:38:48.589Z,1007.61
2019-03-01T07:39:48.577Z,1007.61
2019-03-01T07:40:48.567Z,1007.64
2019-03-01T07:41:49.580Z,1007.67
2019-03-01T07:42:48.549Z,1007.68
2019-03-01T07:43:48.539Z,1007.71
2019-03-01T07:44:48.536Z,1007.73
2019-03-01T07:45:48.530Z,1007.72
2019-03-01T07:46:52.987Z,1007.75
2019-03-01T07:47:48.522Z,1007.77
2019-03-01T07:48:48.511Z,1007.77
2019-03-01T07:49:48.502Z,1007.78
2019-03-01T07:50:48.490Z,1007.74
2019-03-01T07:51:48.482Z,1007.78
2019-03-01T07:52:48.480Z,1007.80
2019-03-01T07:53:48.472Z,1007.77
2019-03-01T07:54:49.516Z,1007.84
2019-03-01T07:55:48.458Z,1007.78
2019-03-01T07:56:48.448Z,1007.84
2019-03-01T07:57:49.824Z,1007.89
2019-03-01T07:58:48.439Z,1007.89
2019-03-01T07:59:48.431Z,1007.88
2019-03-01T08:00:53.300Z,1007.92
2019-03-01T08:01:48.422Z,1007.94
2019-03-01T08:02:48.407Z,1007.97
2019-03-01T08:03:52.251Z,1007.98
2019-03-01T08:04:48.387Z,1007.94
2019-03-01T08:05:48.381Z,1008.01
2019-03-01T08:06:48.835Z,1008.02
2019-03-01T08:07:55.649Z,1007.99
2019-03-01T08:08:48.359Z,1007.98
2019-03-01T08:09:48.351Z,1008.00
2019-03-01T08:10:48.351Z,1008.05
2019-03-01T08:11:48.342Z,1008.05
2019-03-01T08:12:48.337Z,1008.06
2019-03-01T08:13:49.403Z,1008.07
2019-03-01T08:14:48.317Z,1008.13
2019-03-01T08:15:48.310Z,1008.04
2019-03-01T08:16:48.305Z,1008.07
2019-03-01T08:17:48.295Z,1008.08
2019-03-01T08:18:48.298Z,1008.07
2019-03-01T08:19:48.286Z,1008.12
2019-03-01T08:20:48.277Z,1008.11
2019-03-01T08:21:49.823Z,1008.19
2019-03-01T08:22:49.428Z,1008.16
2019-03-01T08:23:50.437Z,1008.20
2019-03-01T08:24:48.249Z,1008.24
2019-03-01T08:25:48.243Z,1008.29
2019-03-01T08:26:48.229Z,1008.26
2019-03-01T08:27:50.314Z,1008.31
2019-03-01T08:28:48.217Z,1008.34
2019-03-01T08:29:48.211Z,1008.34
2019-03-01T08:30:48.208Z,1008.41
2019-03-01T08:31:48.199Z,1008.42
2019-03-01T08:32:48.202Z,1008.46
2019-03-01T08:33:48.186Z,1008.43
2019-03-01T08:34:49.836Z,1008.44
2019-03-01T08:35:48.167Z,1008.50
2019-03-01T08:36:48.161Z,1008.52
2019-03-01T08:37:49.988Z,1008.55
2019-03-01T08:38:48.150Z,1008.59
2019-03-01T08:39:49.732Z,1008.52
2019-03-01T08:40:49.931Z,1008.62
2019-03-01T08:41:48.135Z,1008.58
2019-03-01T08:42:48.119Z,1008.60
2019-03-01T08:43:48.871Z,1008.57
2019-03-01T08:44:48.107Z,1008.56
2019-03-01T08:45:48.099Z,1008.57
2019-03-01T08:46:48.092Z,1008.60
2019-03-01T08:47:48.974Z,1008.60
2019-03-01T08:48:48.070Z,1008.59
2019-03-01T08:49:48.062Z,1008.61
2019-03-01T08:50:48.061Z,1008.62
2019-03-01T08:51:48.053Z,1008.65
2019-03-01T08:52:48.071Z,1008.74
2019-03-01T08:53:48.402Z,1008.71
2019-03-01T08:54:48.032Z,1008.78
2019-03-01T08:55:48.021Z,1008.81
2019-03-01T08:56:50.321Z,1008.76
2019-03-01T08:57:48.014Z,1008.77
2019-03-01T08:58:48.001Z,1008.72
2019-03-01T08:59:47.996Z,1008.77
2019-03-01T09:00:47.985Z,1008.81
2019-03-01T09:01:47.976Z,1008.76
2019-03-01T09:02:47.973Z,1008.79
2019-03-01T09:03:47.966Z,1008.76
2019-03-01T09:04:51.010Z,1008.81
2019-03-01T09:05:47.953Z,1008.83
2019-03-01T09:06:47.938Z,1008.84
2019-03-01T09:07:47.932Z,1008.89
2019-03-01T09:08:47.928Z,1008.85
2019-03-01T09:09:47.918Z,1008.89
2019-03-01T09:10:47.915Z,1008.90
2019-03-01T09:11:47.906Z,1008.90
2019-03-01T09:12:47.896Z,1008.94
2019-03-01T09:13:47.889Z,1008.93
2019-03-01T09:14:47.885Z,1008.96
2019-03-01T09:15:49.364Z,1008.93
2019-03-01T09:16:47.871Z,1008.99
2019-03-01T09:17:47.861Z,1008.94
2019-03-01T09:18:50.030Z,1008.96
2019-03-01T09:19:47.839Z,1008.97
2019-03-01T09:20:47.832Z,1009.02
2019-03-01T09:21:50.062Z,1009.05
2019-03-01T09:22:47.823Z,1009.08
2019-03-01T09:23:51.114Z,1009.15
2019-03-01T09:24:47.811Z,1009.18
2019-03-01T09:25:49.766Z,1009.16
2019-03-01T09:26:47.792Z,1009.12
2019-03-01T09:27:47.783Z,1009.22
2019-03-01T09:28:47.783Z,1009.27
2019-03-01T09:29:47.773Z,1009.23
2019-03-01T09:30:47.761Z,1009.24
2019-03-01T09:31:47.753Z,1009.30
2019-03-01T09:32:47.743Z,1009.25
2019-03-01T09:33:47.738Z,1009.23
2019-03-01T09:34:47.733Z,1009.22
2019-03-01T09:35:49.842Z,1009.27
2019-03-01T09:36:47.719Z,1009.32
2019-03-01T09:37:47.709Z,1009.34
2019-03-01T09:38:47.698Z,1009.41
2019-03-01T09:39:50.448Z,1009.44
2019-03-01T09:40:47.686Z,1009.39
2019-03-01T09:41:47.681Z,1009.46
2019-03-01T09:42:51.377Z,1009.47
2019-03-01T09:43:47.668Z,1009.47
2019-03-01T09:44:47.655Z,1009.44
2019-03-01T09:45:48.839Z,1009.44
2019-03-01T09:46:47.646Z,1009.47
2019-03-01T09:47:47.637Z,1009.46
2019-03-01T09:48:49.380Z,1009.39
2019-03-01T09:49:47.622Z,1009.49
2019-03-01T09:50:47.607Z,1009.49
2019-03-01T09:51:50.003Z,1009.46
2019-03-01T09:52:47.603Z,1009.46
2019-03-01T09:53:47.589Z,1009.45
2019-03-01T09:54:47.585Z,1009.48
2019-03-01T09:55:47.577Z,1009.55
2019-03-01T09:56:47.568Z,1009.54
2019-03-01T09:57:47.566Z,1009.56
2019-03-01T09:58:47.551Z,1009.56
2019-03-01T09:59:47.541Z,1009.60
2019-03-01T10:00:55.818Z,1009.55
2019-03-01T10:01:47.532Z,1009.56
2019-03-01T10:02:47.520Z,1009.60
2019-03-01T10:03:47.531Z,1009.59
2019-03-01T10:04:47.507Z,1009.59
2019-03-01T10:05:47.502Z,1009.64
2019-03-01T10:06:47.496Z,1009.64
2019-03-01T10:07:47.490Z,1009.63
2019-03-01T10:08:47.482Z,1009.62
2019-03-01T10:09:47.475Z,1009.67
2019-03-01T10:10:47.463Z,1009.62
2019-03-01T10:11:47.456Z,1009.68
2019-03-01T10:12:47.445Z,1009.67
2019-03-01T10:13:47.438Z,1009.74
2019-03-01T10:14:47.437Z,1009.74
2019-03-01T10:15:47.428Z,1009.75
2019-03-01T10:16:47.415Z,1009.78
2019-03-01T10:17:47.413Z,1009.78
2019-03-01T10:18:47.407Z,1009.78
2019-03-01T10:19:47.400Z,1009.81
2019-03-01T10:20:47.395Z,1009.84
2019-03-01T10:21:47.387Z,1009.86
2019-03-01T10:22:47.377Z,1009.91
2019-03-01T10:23:47.371Z,1009.89
2019-03-01T10:24:47.361Z,1009.90
2019-03-01T10:25:47.355Z,1009.87
2019-03-01T10:26:47.350Z,1009.91
2019-03-01T10:27:47.344Z,1009.95
2019-03-01T10:28:47.334Z,1009.99
2019-03-01T10:29:47.330Z,1009.96
2019-03-01T10:30:47.318Z,1009.98
2019-03-01T10:31:47.307Z,1009.98
2019-03-01T10:32:47.305Z,1009.97
2019-03-01T10:33:47.298Z,1009.94
2019-03-01T10:34:47.286Z,1010.03
2019-03-01T10:35:47.287Z,1010.04
2019-03-01T10:36:47.273Z,1010.06
2019-03-01T10:37:47.266Z,1010.01
2019-03-01T10:38:47.263Z,1010.04
2019-03-01T10:39:55.220Z,1010.07
2019-03-01T10:40:47.249Z,1010.14
2019-03-01T10:41:48.670Z,1010.12
2019-03-01T10:42:47.231Z,1010.12
2019-03-01T10:43:47.221Z,1010.16
2019-03-01T10:44:47.213Z,1010.19
2019-03-01T10:45:47.208Z,1010.17
2019-03-01T10:46:47.204Z,1010.22
2019-03-01T10:47:47.197Z,1010.25
2019-03-01T10:48:47.185Z,1010.23
2019-03-01T10:49:47.180Z,1010.29
2019-03-01T10:50:47.177Z,1010.26
2019-03-01T10:51:47.166Z,1010.30
2019-03-01T10:52:47.161Z,1010.25
2019-03-01T10:53:47.903Z,1010.27
2019-03-01T10:54:47.143Z,1010.32
2019-03-01T10:55:47.135Z,1010.32
2019-03-01T10:56:47.132Z,1010.36
2019-03-01T10:57:47.121Z,1010.34
2019-03-01T10:58:47.119Z,1010.34
2019-03-01T10:59:47.108Z,1010.35
2019-03-01T11:00:47.100Z,1010.34
2019-03-01T11:01:47.095Z,1010.40
2019-03-01T11:02:47.080Z,1010.39
2019-03-01T11:03:47.074Z,1010.35
2019-03-01T11:04:47.070Z,1010.41
2019-03-01T11:05:47.063Z,1010.39
2019-03-01T11:06:47.050Z,1010.41
2019-03-01T11:07:47.042Z,1010.41
2019-03-01T11:08:47.037Z,1010.39
2019-03-01T11:09:47.030Z,1010.39
2019-03-01T11:10:47.027Z,1010.47
2019-03-01T11:11:47.024Z,1010.44
2019-03-01T11:12:47.012Z,1010.47
2019-03-01T11:13:47.007Z,1010.44
2019-03-01T11:14:46.993Z,1010.39
2019-03-01T11:15:46.985Z,1010.43
2019-03-01T11:16:46.977Z,1010.44
2019-03-01T11:17:46.969Z,1010.47
2019-03-01T11:18:46.967Z,1010.47
2019-03-01T11:19:46.956Z,1010.48
2019-03-01T11:20:46.946Z,1010.42
2019-03-01T11:21:46.938Z,1010.47
2019-03-01T11:22:46.935Z,1010.46
2019-03-01T11:23:46.927Z,1010.49
2019-03-01T11:24:46.923Z,1010.47
2019-03-01T11:25:46.914Z,1010.48
2019-03-01T11:26:46.903Z,1010.49
2019-03-01T11:27:46.897Z,1010.48
2019-03-01T11:28:46.888Z,1010.51
2019-03-01T11:29:46.881Z,1010.48
2019-03-01T11:30:46.877Z,1010.50
2019-03-01T11:31:46.878Z,1010.49
2019-03-01T11:32:46.860Z,1010.50
2019-03-01T11:33:46.861Z,1010.49
2019-03-01T11:34:46.840Z,1010.45
2019-03-01T11:35:46.832Z,1010.55
2019-03-01T11:36:46.874Z,1010.49
2019-03-01T11:37:46.829Z,1010.49
2019-03-01T11:38:46.812Z,1010.54
2019-03-01T11:39:46.805Z,1010.55
2019-03-01T11:40:46.800Z,1010.55
2019-03-01T11:41:46.793Z,1010.61
2019-03-01T11:42:46.791Z,1010.63
2019-03-01T11:43:46.780Z,1010.58
2019-03-01T11:44:46.774Z,1010.63
2019-03-01T11:45:46.766Z,1010.64
2019-03-01T11:46:46.756Z,1010.64
2019-03-01T11:47:46.750Z,1010.67
2019-03-01T11:48:46.737Z,1010.64
2019-03-01T11:49:46.731Z,1010.65
2019-03-01T11:50:46.779Z,1010.72
2019-03-01T11:51:46.722Z,1010.67
2019-03-01T11:52:46.710Z,1010.66
2019-03-01T11:53:46.700Z,1010.67
2019-03-01T11:54:46.700Z,1010.68
2019-03-01T11:55:46.690Z,1010.69
2019-03-01T11:56:46.688Z,1010.73
2019-03-01T11:57:46.680Z,1010.69
2019-03-01T11:58:46.667Z,1010.68
2019-03-01T11:59:46.659Z,1010.72
2019-03-01T12:00:52.153Z,1010.73
2019-03-01T12:01:46.643Z,1010.71
2019-03-01T12:02:46.640Z,1010.69
2019-03-01T12:03:46.633Z,1010.76
2019-03-01T12:04:46.627Z,1010.69
2019-03-01T12:05:46.620Z,1010.67